Time;durP1;ratioP1;P1;durP2;ratioP2;P2;SDS_P1;SDS_P2;PMS_P1;PMS_P2;Temp;Humidity;BMP_temperature;BMP_pressure;BME280_temperature;BME280_humidity;BME280_pressure;Samples;Min_cycle;Max_cycle;Signal;HPM_P1;HPM_P2
2021/12/19 00:01:12;;;;;;;7.30;2.35;;;;;;;;;;4954610;28;20082;-43
2021/12/19 00:03:56;;;;;;;11.85;2.67;;;;;;;;;;4955006;28;20031;-44
2021/12/19 00:09:07;;;;;;;8.98;3.13;;;;;;;;;;4959413;28;20037;-43
2021/12/19 00:11:33;;;;;;;12.68;3.78;;;;;;;;;;4953394;28;20467;-43
2021/12/19 00:14:00;;;;;;;10.02;3.55;;;;;;;;;;4952416;28;20475;-43
2021/12/19 00:16:26;;;;;;;17.88;3.63;;;;;;;;;;4951729;28;20110;-43
2021/12/19 00:18:52;;;;;;;16.92;3.80;;;;;;;;;;4955851;28;20031;-43
2021/12/19 00:21:19;;;;;;;11.00;3.45;;;;;;;;;;4955668;28;20031;-44
2021/12/19 00:23:46;;;;;;;12.68;4.05;;;;;;;;;;4952445;28;20035;-43
2021/12/19 00:26:13;;;;;;;12.60;3.72;;;;;;;;;;4958039;28;20051;-43
2021/12/19 00:28:39;;;;;;;11.02;3.28;;;;;;;;;;4955361;28;20367;-43
2021/12/19 00:31:06;;;;;;;14.65;4.03;;;;;;;;;;4956585;28;20059;-44
2021/12/19 00:33:32;;;;;;;15.18;4.90;;;;;;;;;;4953907;28;20387;-43
2021/12/19 00:35:58;;;;;;;11.15;3.83;;;;;;;;;;4953324;28;20105;-43
2021/12/19 00:38:24;;;;;;;12.57;4.25;;;;;;;;;;4955551;28;20043;-43
2021/12/19 00:40:51;;;;;;;12.50;4.03;;;;;;;;;;4955289;28;20031;-43
2021/12/19 00:43:33;;;;;;;13.82;3.08;;;;;;;;;;4956284;28;20027;-43
2021/12/19 00:46:06;;;;;;;15.63;3.42;;;;;;;;;;4956383;28;20062;-43
2021/12/19 00:48:32;;;;;;;12.68;3.75;;;;;;;;;;4953630;28;20034;-43
2021/12/19 00:50:59;;;;;;;14.68;4.25;;;;;;;;;;4955532;28;20031;-44
2021/12/19 00:53:25;;;;;;;14.35;4.07;;;;;;;;;;4953528;28;20027;-43
2021/12/19 00:55:51;;;;;;;11.65;4.25;;;;;;;;;;4952256;28;20035;-43
2021/12/19 00:58:17;;;;;;;19.95;4.97;;;;;;;;;;4956526;28;20038;-43
2021/12/19 01:00:44;;;;;;;12.15;3.88;;;;;;;;;;4953156;28;20086;-43
2021/12/19 01:03:10;;;;;;;11.45;3.80;;;;;;;;;;4952980;28;20066;-43
2021/12/19 01:05:38;;;;;;;25.33;4.18;;;;;;;;;;4953156;28;20050;-43
2021/12/19 01:08:05;;;;;;;16.45;4.53;;;;;;;;;;4956424;28;20022;-43
2021/12/19 01:10:31;;;;;;;15.88;6.15;;;;;;;;;;4955068;28;20051;-44
2021/12/19 01:12:57;;;;;;;18.95;5.15;;;;;;;;;;4951668;28;20028;-43
2021/12/19 01:15:23;;;;;;;18.27;4.43;;;;;;;;;;4951092;28;20027;-43
2021/12/19 01:17:50;;;;;;;16.83;4.05;;;;;;;;;;4956595;28;20098;-44
2021/12/19 01:20:20;;;;;;;31.08;6.75;;;;;;;;;;4953022;28;20459;-44
2021/12/19 01:22:47;;;;;;;16.38;4.60;;;;;;;;;;4952192;28;20066;-43
2021/12/19 01:25:13;;;;;;;14.32;3.95;;;;;;;;;;4954059;28;20073;-43
2021/12/19 01:27:40;;;;;;;21.92;4.53;;;;;;;;;;4954625;28;20051;-43
2021/12/19 01:30:07;;;;;;;16.67;6.47;;;;;;;;;;4955640;28;20054;-43
2021/12/19 01:32:33;;;;;;;22.50;4.75;;;;;;;;;;4954446;28;20030;-43
2021/12/19 01:34:59;;;;;;;15.82;3.97;;;;;;;;;;4950926;28;20046;-43
2021/12/19 01:37:25;;;;;;;30.45;5.47;;;;;;;;;;4954598;28;20027;-43
2021/12/19 01:39:51;;;;;;;19.95;5.95;;;;;;;;;;4954188;28;20058;-43
2021/12/19 01:42:19;;;;;;;17.90;4.85;;;;;;;;;;4955605;28;20114;-43
2021/12/19 01:44:46;;;;;;;22.70;4.03;;;;;;;;;;4952660;28;20055;-43
2021/12/19 01:47:12;;;;;;;29.40;5.28;;;;;;;;;;4955745;28;20033;-44
2021/12/19 01:49:38;;;;;;;10.00;4.20;;;;;;;;;;4952651;28;20142;-43
2021/12/19 01:52:04;;;;;;;18.67;4.65;;;;;;;;;;4954443;28;20118;-43
2021/12/19 01:54:30;;;;;;;17.92;4.57;;;;;;;;;;4950915;28;20058;-43
2021/12/19 01:56:56;;;;;;;19.73;3.97;;;;;;;;;;4952454;28;20054;-43
2021/12/19 01:59:22;;;;;;;19.52;4.30;;;;;;;;;;4952489;28;20106;-44
2021/12/19 02:01:52;;;;;;;16.13;4.35;;;;;;;;;;4954805;28;20114;-42
2021/12/19 02:04:19;;;;;;;13.93;4.45;;;;;;;;;;4951815;28;20117;-43
2021/12/19 02:06:46;;;;;;;25.05;5.38;;;;;;;;;;4954045;28;20487;-44
2021/12/19 02:09:12;;;;;;;18.83;5.13;;;;;;;;;;4955889;28;20110;-43
2021/12/19 02:11:39;;;;;;;20.75;5.10;;;;;;;;;;4952961;28;20070;-44
2021/12/19 02:14:06;;;;;;;16.33;4.30;;;;;;;;;;4951826;28;20031;-45
2021/12/19 02:16:32;;;;;;;20.65;3.95;;;;;;;;;;4951150;28;20023;-43
2021/12/19 02:18:58;;;;;;;21.63;5.32;;;;;;;;;;4952339;28;20138;-43
2021/12/19 02:21:24;;;;;;;17.58;4.03;;;;;;;;;;4953700;28;20038;-44
2021/12/19 02:23:50;;;;;;;17.55;4.80;;;;;;;;;;4953503;28;20039;-44
2021/12/19 02:26:17;;;;;;;18.80;5.57;;;;;;;;;;4952377;28;20026;-45
2021/12/19 02:28:43;;;;;;;20.40;5.35;;;;;;;;;;4954427;28;20114;-43
2021/12/19 02:31:10;;;;;;;19.70;4.60;;;;;;;;;;4957377;28;20552;-43
2021/12/19 02:33:40;;;;;;;19.05;5.18;;;;;;;;;;4957949;28;20335;-43
2021/12/19 02:39:19;;;;;;;17.25;5.30;;;;;;;;;;4954697;29;20031;-44
2021/12/19 02:49:41;;;;;;;22.20;6.28;;;;;;;;;;4954069;28;20047;-43
2021/12/19 02:52:11;;;;;;;11.93;5.03;;;;;;;;;;4956804;28;20157;-43
2021/12/19 02:54:37;;;;;;;22.60;7.20;;;;;;;;;;4954195;28;20069;-43
2021/12/19 02:57:03;;;;;;;19.55;5.15;;;;;;;;;;4954903;28;20035;-43
2021/12/19 02:59:29;;;;;;;21.90;5.35;;;;;;;;;;4955688;28;20066;-43
2021/12/19 03:01:55;;;;;;;27.55;5.57;;;;;;;;;;4956713;28;20059;-45
2021/12/19 03:04:22;;;;;;;16.15;4.90;;;;;;;;;;4953570;28;20340;-44
2021/12/19 03:06:48;;;;;;;19.80;5.38;;;;;;;;;;4955670;28;20110;-43
2021/12/19 03:09:23;;;;;;;15.48;4.88;;;;;;;;;;4954827;28;20031;-44
2021/12/19 03:19:48;;;;;;;13.15;4.75;;;;;;;;;;4953317;28;20142;-43
2021/12/19 03:22:14;;;;;;;20.40;4.82;;;;;;;;;;4955922;28;20050;-43
2021/12/19 03:24:40;;;;;;;19.10;5.97;;;;;;;;;;4955524;28;20023;-43
2021/12/19 03:27:06;;;;;;;19.63;5.45;;;;;;;;;;4953501;28;20098;-44
2021/12/19 03:29:32;;;;;;;20.15;5.00;;;;;;;;;;4953631;28;20019;-44
2021/12/19 03:31:58;;;;;;;16.30;4.95;;;;;;;;;;4954175;28;20364;-43
2021/12/19 03:34:24;;;;;;;22.67;6.63;;;;;;;;;;4953951;28;20034;-42
2021/12/19 03:36:52;;;;;;;20.17;5.60;;;;;;;;;;4955566;28;20471;-43
2021/12/19 03:39:26;;;;;;;25.83;5.22;;;;;;;;;;4953962;28;20054;-43
2021/12/19 03:41:54;;;;;;;15.23;4.47;;;;;;;;;;4953891;28;20063;-43
2021/12/19 03:44:21;;;;;;;25.77;6.13;;;;;;;;;;4954702;28;20070;-43
2021/12/19 03:46:47;;;;;;;25.48;5.70;;;;;;;;;;4955166;28;20047;-43
2021/12/19 03:49:17;;;;;;;13.38;3.97;;;;;;;;;;4954924;28;20377;-42
2021/12/19 03:51:43;;;;;;;17.63;5.00;;;;;;;;;;4954537;28;20019;-43
2021/12/19 03:54:09;;;;;;;18.75;4.53;;;;;;;;;;4955735;28;20438;-43
2021/12/19 03:56:35;;;;;;;18.30;5.03;;;;;;;;;;4958064;28;20435;-43
2021/12/19 03:59:01;;;;;;;23.85;4.60;;;;;;;;;;4956665;28;20058;-42
2021/12/19 04:01:27;;;;;;;18.05;4.53;;;;;;;;;;4953967;28;20034;-43
2021/12/19 04:03:53;;;;;;;23.60;4.85;;;;;;;;;;4954219;28;20321;-44
2021/12/19 04:06:19;;;;;;;27.02;5.75;;;;;;;;;;4973465;23;20026;-42
2021/12/19 04:08:46;;;;;;;24.13;5.93;;;;;;;;;;5028877;28;20045;-43
2021/12/19 04:11:12;;;;;;;36.40;5.82;;;;;;;;;;5023727;28;20101;-43
2021/12/19 04:13:38;;;;;;;23.45;5.75;;;;;;;;;;5018795;28;20026;-44
2021/12/19 04:16:04;;;;;;;26.13;5.78;;;;;;;;;;5023131;28;20030;-44
2021/12/19 04:18:30;;;;;;;27.65;7.18;;;;;;;;;;5018468;28;20125;-43
2021/12/19 04:20:56;;;;;;;22.17;7.15;;;;;;;;;;5025071;28;20048;-42
2021/12/19 04:23:22;;;;;;;29.00;8.98;;;;;;;;;;5017209;28;20417;-42
2021/12/19 04:25:50;;;;;;;17.70;5.35;;;;;;;;;;5024853;28;20040;-43
2021/12/19 04:28:16;;;;;;;10.50;5.63;;;;;;;;;;5018657;28;20079;-43
2021/12/19 04:30:42;;;;;;;23.48;4.82;;;;;;;;;;5021861;28;20092;-43
2021/12/19 04:33:11;;;;;;;14.32;3.03;;;;;;;;;;5024957;28;20473;-44
2021/12/19 04:35:39;;;;;;;16.80;3.70;;;;;;;;;;5028226;28;20439;-44
2021/12/19 05:00:06;;;;;;;14.55;2.05;;;;;;;;;;5031537;28;20398;-42
2021/12/19 05:02:52;;;;;;;6.82;2.47;;;;;;;;;;5020370;28;20026;-43
2021/12/19 05:15:58;;;;;;;6.40;2.00;;;;;;;;;;5021712;28;20515;-44
2021/12/19 05:18:28;;;;;;;11.55;2.15;;;;;;;;;;5022179;28;20037;-44
2021/12/19 05:21:09;;;;;;;7.18;2.03;;;;;;;;;;5019208;28;20029;-43
2021/12/19 05:23:51;;;;;;;8.05;1.90;;;;;;;;;;5020172;28;20041;-43
2021/12/19 05:26:18;;;;;;;7.85;2.15;;;;;;;;;;5020236;28;20029;-44
2021/12/19 05:28:44;;;;;;;15.95;3.08;;;;;;;;;;5019249;28;20044;-43
2021/12/19 05:31:10;;;;;;;13.40;2.10;;;;;;;;;;5025267;28;20026;-42
2021/12/19 05:33:36;;;;;;;19.10;2.63;;;;;;;;;;5019099;28;20025;-42
2021/12/19 05:46:43;;;;;;;7.97;1.13;;;;;;;;;;5019575;28;20060;-42
2021/12/19 05:49:09;;;;;;;3.65;1.30;;;;;;;;;;5017132;28;20346;-42
2021/12/19 05:51:36;;;;;;;11.95;1.30;;;;;;;;;;5020002;28;20077;-44
2021/12/19 05:54:02;;;;;;;7.63;1.88;;;;;;;;;;5021874;28;20026;-42
2021/12/19 05:56:28;;;;;;;5.97;1.48;;;;;;;;;;5019299;28;20022;-42
2021/12/19 05:58:55;;;;;;;15.20;2.42;;;;;;;;;;5021904;28;20499;-42
2021/12/19 06:01:21;;;;;;;12.77;1.45;;;;;;;;;;5019051;28;20464;-42
2021/12/19 06:03:47;;;;;;;13.43;1.83;;;;;;;;;;5015913;28;20029;-42
2021/12/19 06:06:13;;;;;;;8.55;1.35;;;;;;;;;;5017884;28;20040;-43
2021/12/19 06:08:39;;;;;;;9.00;1.77;;;;;;;;;;5020830;28;20105;-43
2021/12/19 06:11:05;;;;;;;12.75;2.08;;;;;;;;;;5016922;28;20526;-42
2021/12/19 06:13:31;;;;;;;7.30;1.90;;;;;;;;;;5018215;28;20030;-44
2021/12/19 06:15:57;;;;;;;15.13;3.33;;;;;;;;;;5019424;28;20388;-42
2021/12/19 06:18:24;;;;;;;14.98;1.75;;;;;;;;;;5020234;28;20036;-42
2021/12/19 06:20:50;;;;;;;11.77;1.35;;;;;;;;;;5022631;28;20064;-42
2021/12/19 06:23:16;;;;;;;8.60;1.40;;;;;;;;;;5021809;28;20025;-43
2021/12/19 06:25:45;;;;;;;6.75;1.75;;;;;;;;;;5020507;28;20017;-42
2021/12/19 06:28:18;;;;;;;12.60;2.05;;;;;;;;;;5020958;28;20115;-42
2021/12/19 06:30:45;;;;;;;7.97;1.45;;;;;;;;;;5015763;28;20025;-43
2021/12/19 06:33:11;;;;;;;14.38;2.13;;;;;;;;;;5019963;28;20029;-42
2021/12/19 06:35:37;;;;;;;9.25;2.40;;;;;;;;;;5019782;28;20527;-43
2021/12/19 06:38:03;;;;;;;9.43;1.80;;;;;;;;;;5023055;28;20025;-42
2021/12/19 06:40:29;;;;;;;11.77;2.42;;;;;;;;;;5019090;28;20053;-43
2021/12/19 06:42:56;;;;;;;11.40;2.40;;;;;;;;;;5022060;28;20050;-44
2021/12/19 06:45:22;;;;;;;15.77;4.18;;;;;;;;;;5021515;28;20478;-44
2021/12/19 06:47:49;;;;;;;14.80;2.08;;;;;;;;;;5021909;28;20026;-42
2021/12/19 06:50:16;;;;;;;18.90;2.97;;;;;;;;;;5018927;28;20059;-43
2021/12/19 06:52:43;;;;;;;15.15;1.90;;;;;;;;;;5017160;28;20053;-43
2021/12/19 06:55:10;;;;;;;11.77;2.60;;;;;;;;;;5021197;28;20464;-42
2021/12/19 06:57:36;;;;;;;27.08;2.97;;;;;;;;;;5022021;28;20685;-43
2021/12/19 07:00:07;;;;;;;10.65;2.15;;;;;;;;;;5020907;28;20029;-43
2021/12/19 07:02:34;;;;;;;18.08;2.08;;;;;;;;;;5019237;28;20064;-42
2021/12/19 07:05:00;;;;;;;14.50;3.30;;;;;;;;;;5023470;28;20473;-43
2021/12/19 07:07:26;;;;;;;10.98;2.40;;;;;;;;;;5020049;28;20037;-42
2021/12/19 07:09:52;;;;;;;15.25;2.22;;;;;;;;;;5024545;28;20033;-43
2021/12/19 07:12:18;;;;;;;12.50;1.63;;;;;;;;;;5030008;28;20025;-43
2021/12/19 07:14:44;;;;;;;12.90;2.35;;;;;;;;;;5032152;28;20029;-44
2021/12/19 07:17:11;;;;;;;12.35;2.30;;;;;;;;;;5033887;28;20053;-43
2021/12/19 07:19:37;;;;;;;9.35;1.58;;;;;;;;;;5032788;28;20035;-43
2021/12/19 07:22:03;;;;;;;12.60;1.58;;;;;;;;;;5036615;28;20021;-43
2021/12/19 07:24:29;;;;;;;9.15;1.80;;;;;;;;;;5034696;28;20469;-43
2021/12/19 07:26:55;;;;;;;16.27;2.42;;;;;;;;;;5034362;28;20101;-43
2021/12/19 07:29:21;;;;;;;11.45;1.40;;;;;;;;;;5032647;28;20105;-43
2021/12/19 07:31:47;;;;;;;13.25;1.88;;;;;;;;;;5032061;28;20025;-43
2021/12/19 07:34:13;;;;;;;10.70;1.45;;;;;;;;;;5036237;28;20036;-43
2021/12/19 07:36:43;;;;;;;11.48;2.20;;;;;;;;;;5034822;28;20071;-43
2021/12/19 07:40:03;;;;;;;10.52;1.75;;;;;;;;;;5033560;28;20512;-44
2021/12/19 07:41:58;;;;;;;13.60;1.50;;;;;;;;;;5018733;28;20037;-43
2021/12/19 07:44:24;;;;;;;12.85;1.88;;;;;;;;;;5031766;28;20117;-43
2021/12/19 07:46:50;;;;;;;10.02;2.05;;;;;;;;;;5033437;28;20164;-43
2021/12/19 07:49:16;;;;;;;12.05;2.20;;;;;;;;;;5032200;28;20440;-43
2021/12/19 07:51:43;;;;;;;6.20;2.40;;;;;;;;;;5032356;28;20056;-43
2021/12/19 07:54:09;;;;;;;10.60;1.52;;;;;;;;;;5036937;28;20029;-43
2021/12/19 07:56:35;;;;;;;13.55;2.53;;;;;;;;;;5046045;28;20120;-43
2021/12/19 07:59:01;;;;;;;8.10;1.73;;;;;;;;;;5034661;28;20040;-44
2021/12/19 08:01:27;;;;;;;18.33;2.00;;;;;;;;;;5031774;28;20025;-42
2021/12/19 08:03:53;;;;;;;7.30;2.28;;;;;;;;;;5033743;28;20072;-43
2021/12/19 08:06:19;;;;;;;9.48;2.25;;;;;;;;;;5033206;28;20049;-43
2021/12/19 08:08:51;;;;;;;13.63;2.13;;;;;;;;;;5035346;28;20118;-43
2021/12/19 08:14:01;;;;;;;18.33;2.45;;;;;;;;;;5032638;28;20219;-43
2021/12/19 08:16:27;;;;;;;9.90;2.30;;;;;;;;;;5040130;28;20542;-43
2021/12/19 08:18:53;;;;;;;16.40;1.90;;;;;;;;;;5034483;28;20037;-42
2021/12/19 08:21:20;;;;;;;20.88;3.47;;;;;;;;;;5036730;28;20029;-43
2021/12/19 08:23:46;;;;;;;13.95;1.70;;;;;;;;;;5032879;28;20139;-43
2021/12/19 08:26:12;;;;;;;16.67;3.10;;;;;;;;;;5030729;28;20061;-43
2021/12/19 08:28:38;;;;;;;18.15;3.47;;;;;;;;;;5034939;28;20052;-43
2021/12/19 08:31:04;;;;;;;11.05;2.00;;;;;;;;;;5030138;28;20057;-43
2021/12/19 08:33:30;;;;;;;15.93;2.58;;;;;;;;;;5030131;28;20594;-43
2021/12/19 08:35:57;;;;;;;10.05;1.92;;;;;;;;;;5030588;28;20073;-43
2021/12/19 08:38:23;;;;;;;14.95;2.65;;;;;;;;;;5032677;28;20029;-44
2021/12/19 08:40:51;;;;;;;17.23;2.67;;;;;;;;;;5037937;28;20037;-43
2021/12/19 08:43:17;;;;;;;14.55;4.00;;;;;;;;;;5029215;28;20025;-43
2021/12/19 08:45:43;;;;;;;15.27;2.03;;;;;;;;;;5031028;28;20032;-43
2021/12/19 08:48:09;;;;;;;17.60;2.60;;;;;;;;;;5031588;28;20060;-43
2021/12/19 08:50:36;;;;;;;12.50;2.30;;;;;;;;;;5030270;28;20126;-43
2021/12/19 08:53:02;;;;;;;10.82;1.80;;;;;;;;;;5030752;28;20060;-42
2021/12/19 08:55:28;;;;;;;12.23;2.25;;;;;;;;;;5031673;28;20562;-43
2021/12/19 08:57:54;;;;;;;15.30;2.45;;;;;;;;;;5029576;28;20044;-43
2021/12/19 09:00:20;;;;;;;15.23;1.75;;;;;;;;;;5032286;28;20352;-43
2021/12/19 09:02:49;;;;;;;16.10;2.22;;;;;;;;;;5031800;28;20468;-43
2021/12/19 09:05:15;;;;;;;10.60;1.65;;;;;;;;;;5030186;28;20033;-42
2021/12/19 09:07:41;;;;;;;16.65;2.17;;;;;;;;;;5034459;28;20045;-44
2021/12/19 09:10:07;;;;;;;18.83;2.05;;;;;;;;;;5039740;28;20553;-42
2021/12/19 09:12:33;;;;;;;9.98;1.67;;;;;;;;;;5030518;28;20160;-43
2021/12/19 09:14:59;;;;;;;6.45;1.60;;;;;;;;;;5031296;28;20098;-42
2021/12/19 09:17:26;;;;;;;11.20;1.85;;;;;;;;;;5021299;28;20064;-43
2021/12/19 09:19:52;;;;;;;21.52;2.22;;;;;;;;;;5037338;28;20109;-42
2021/12/19 09:22:18;;;;;;;17.80;1.42;;;;;;;;;;5030604;28;20464;-42
2021/12/19 09:24:44;;;;;;;14.50;2.95;;;;;;;;;;5037447;28;20040;-42
2021/12/19 09:27:10;;;;;;;16.45;2.30;;;;;;;;;;5030555;28;20035;-43
2021/12/19 09:29:36;;;;;;;14.65;1.90;;;;;;;;;;5036011;28;20472;-43
2021/12/19 09:32:03;;;;;;;16.95;2.13;;;;;;;;;;5036097;28;20110;-43
2021/12/19 09:34:29;;;;;;;16.73;1.63;;;;;;;;;;5033691;28;20067;-38
2021/12/19 09:36:56;;;;;;;15.18;1.50;;;;;;;;;;5030419;28;20064;-39
2021/12/19 09:39:23;;;;;;;10.57;2.13;;;;;;;;;;5037900;28;20109;-39
2021/12/19 09:41:52;;;;;;;23.15;2.58;;;;;;;;;;5031196;28;20022;-39
2021/12/19 09:44:18;;;;;;;14.82;2.60;;;;;;;;;;5033834;28;20075;-39
2021/12/19 09:46:45;;;;;;;16.63;2.55;;;;;;;;;;5031294;28;20036;-37
2021/12/19 09:49:13;;;;;;;11.75;2.38;;;;;;;;;;5029004;28;20104;-35
2021/12/19 09:51:39;;;;;;;12.40;2.30;;;;;;;;;;5034565;28;20129;-35
2021/12/19 09:54:06;;;;;;;22.08;2.30;;;;;;;;;;5029516;28;20055;-37
2021/12/19 09:56:33;;;;;;;8.18;1.65;;;;;;;;;;5023629;28;20115;-36
2021/12/19 09:59:00;;;;;;;12.43;2.97;;;;;;;;;;5024791;28;20044;-38
2021/12/19 10:01:26;;;;;;;14.77;2.78;;;;;;;;;;5030201;28;20159;-38
2021/12/19 10:03:52;;;;;;;20.77;2.95;;;;;;;;;;5008917;28;20108;-37
2021/12/19 10:06:18;;;;;;;18.30;3.00;;;;;;;;;;5032536;28;20108;-38
2021/12/19 10:08:45;;;;;;;18.45;2.17;;;;;;;;;;5030498;23;20059;-37
2021/12/19 10:11:34;;;;;;;15.95;2.58;;;;;;;;;;5025814;28;20508;-37
2021/12/19 10:14:01;;;;;;;12.65;1.90;;;;;;;;;;5021933;28;20029;-37
2021/12/19 10:16:31;;;;;;;13.50;2.72;;;;;;;;;;5008498;28;20037;-37
2021/12/19 10:18:59;;;;;;;14.90;2.20;;;;;;;;;;5007315;28;20026;-37
2021/12/19 10:21:25;;;;;;;19.05;2.63;;;;;;;;;;5009986;28;20032;-37
2021/12/19 10:23:51;;;;;;;18.63;3.00;;;;;;;;;;5008705;28;20069;-37
2021/12/19 10:26:17;;;;;;;9.25;1.83;;;;;;;;;;5012986;28;20026;-37
2021/12/19 10:28:49;;;;;;;13.25;2.28;;;;;;;;;;5008306;28;20037;-37
2021/12/19 10:31:15;;;;;;;18.60;3.28;;;;;;;;;;5007952;28;20026;-37
2021/12/19 10:33:41;;;;;;;20.75;2.65;;;;;;;;;;5010631;28;20101;-37
2021/12/19 10:36:09;;;;;;;18.42;2.08;;;;;;;;;;5014072;28;20648;-36
2021/12/19 10:38:35;;;;;;;16.95;2.85;;;;;;;;;;5018742;28;20440;-37
2021/12/19 10:41:06;;;;;;;13.98;1.70;;;;;;;;;;5022840;28;20448;-37
2021/12/19 10:43:33;;;;;;;20.15;1.85;;;;;;;;;;5012798;28;20088;-37
2021/12/19 10:46:08;;;;;;;12.55;2.45;;;;;;;;;;5013392;28;20488;-37
2021/12/19 10:48:36;;;;;;;13.70;2.90;;;;;;;;;;5008482;28;20025;-37
2021/12/19 10:51:10;;;;;;;19.95;2.70;;;;;;;;;;5017454;28;20022;-37
2021/12/19 10:53:38;;;;;;;12.48;3.33;;;;;;;;;;5013393;28;20025;-37
2021/12/19 10:56:07;;;;;;;14.85;2.45;;;;;;;;;;5011571;28;20030;-38
2021/12/19 10:58:36;;;;;;;18.63;2.50;;;;;;;;;;5012787;28;20096;-37
2021/12/19 11:01:04;;;;;;;15.82;2.25;;;;;;;;;;5010867;28;20465;-37
2021/12/19 11:03:39;;;;;;;15.63;2.05;;;;;;;;;;5013495;28;20022;-37
2021/12/19 11:06:34;;;;;;;14.18;2.50;;;;;;;;;;5017415;28;20028;-37
2021/12/19 11:09:01;;;;;;;10.18;2.03;;;;;;;;;;4994899;28;20053;-37
2021/12/19 11:11:30;;;;;;;15.10;3.13;;;;;;;;;;5015586;28;20109;-37
2021/12/19 11:13:56;;;;;;;11.43;2.30;;;;;;;;;;5015432;28;20022;-37
2021/12/19 11:16:22;;;;;;;9.95;1.75;;;;;;;;;;5012328;28;20018;-38
2021/12/19 11:18:48;;;;;;;20.83;2.92;;;;;;;;;;5014332;28;20145;-37
2021/12/19 11:21:14;;;;;;;14.25;3.80;;;;;;;;;;5015933;28;20357;-37
2021/12/19 11:23:41;;;;;;;7.15;1.95;;;;;;;;;;5012675;28;20515;-37
2021/12/19 11:26:07;;;;;;;14.82;2.63;;;;;;;;;;5005136;28;20164;-37
2021/12/19 11:28:34;;;;;;;17.92;2.63;;;;;;;;;;5005785;28;20160;-37
2021/12/19 11:31:01;;;;;;;12.30;2.28;;;;;;;;;;5011799;28;20030;-38
2021/12/19 11:33:32;;;;;;;21.80;2.25;;;;;;;;;;5011850;28;20022;-37
2021/12/19 11:35:59;;;;;;;13.18;1.83;;;;;;;;;;5007392;28;20452;-37
2021/12/19 11:38:25;;;;;;;20.45;2.85;;;;;;;;;;4996744;28;20109;-37
2021/12/19 11:40:52;;;;;;;19.15;1.77;;;;;;;;;;5003703;28;20026;-37
2021/12/19 11:43:18;;;;;;;12.27;2.05;;;;;;;;;;5001262;28;20025;-37
2021/12/19 11:45:56;;;;;;;12.75;2.10;;;;;;;;;;5013785;28;20116;-37
2021/12/19 11:48:29;;;;;;;12.68;2.08;;;;;;;;;;5011890;28;20017;-38
2021/12/19 11:50:56;;;;;;;15.13;2.03;;;;;;;;;;5010381;28;20029;-37
2021/12/19 11:53:25;;;;;;;12.27;2.63;;;;;;;;;;5005661;28;20092;-37
2021/12/19 11:56:08;;;;;;;13.93;2.20;;;;;;;;;;4999458;28;20014;-36
2021/12/19 11:58:37;;;;;;;12.48;2.10;;;;;;;;;;5011201;28;20123;-37
2021/12/19 12:01:11;;;;;;;9.55;1.95;;;;;;;;;;5014936;28;20030;-37
2021/12/19 12:03:39;;;;;;;13.82;1.70;;;;;;;;;;5028626;28;20029;-37
2021/12/19 12:06:15;;;;;;;11.18;2.95;;;;;;;;;;5013154;28;20108;-37
2021/12/19 12:09:02;;;;;;;12.27;1.73;;;;;;;;;;5006934;28;20400;-37
2021/12/19 12:11:28;;;;;;;12.80;1.85;;;;;;;;;;5011953;28;20026;-37
2021/12/19 12:13:54;;;;;;;8.35;1.95;;;;;;;;;;5011155;28;20120;-37
2021/12/19 12:16:28;;;;;;;14.50;1.70;;;;;;;;;;5010451;28;20045;-37
2021/12/19 12:18:55;;;;;;;10.85;2.10;;;;;;;;;;5007502;28;20079;-37
2021/12/19 12:21:28;;;;;;;10.85;2.00;;;;;;;;;;5014359;28;20025;-37
2021/12/19 12:23:57;;;;;;;16.55;2.72;;;;;;;;;;5008956;28;20056;-37
2021/12/19 12:26:28;;;;;;;14.25;1.92;;;;;;;;;;5005294;28;20034;-37
2021/12/19 12:28:55;;;;;;;11.80;2.17;;;;;;;;;;5019347;28;20026;-37
2021/12/19 12:31:21;;;;;;;23.48;4.97;;;;;;;;;;5019198;28;20061;-37
2021/12/19 12:33:47;;;;;;;14.07;2.53;;;;;;;;;;5018085;28;20030;-37
2021/12/19 12:36:15;;;;;;;16.35;3.00;;;;;;;;;;5008277;28;20128;-37
2021/12/19 12:38:45;;;;;;;13.82;1.80;;;;;;;;;;5009776;28;20056;-37
2021/12/19 12:41:26;;;;;;;15.07;2.42;;;;;;;;;;5006460;28;20102;-37
2021/12/19 12:43:52;;;;;;;15.80;1.92;;;;;;;;;;5004783;28;20112;-37
2021/12/19 12:46:19;;;;;;;16.23;2.13;;;;;;;;;;5007015;28;20114;-37
2021/12/19 12:49:00;;;;;;;15.23;2.72;;;;;;;;;;5009580;28;20033;-37
2021/12/19 12:51:31;;;;;;;11.52;2.55;;;;;;;;;;5010163;28;20479;-37
2021/12/19 12:53:59;;;;;;;14.07;2.63;;;;;;;;;;5011489;28;20085;-37
2021/12/19 12:56:31;;;;;;;9.18;1.83;;;;;;;;;;5013016;28;20105;-37
2021/12/19 12:58:57;;;;;;;14.50;2.10;;;;;;;;;;5012827;28;20342;-37
2021/12/19 13:01:25;;;;;;;12.60;2.28;;;;;;;;;;5014593;28;20026;-37
2021/12/19 13:03:54;;;;;;;21.17;2.58;;;;;;;;;;5007920;28;20096;-38
2021/12/19 13:06:38;;;;;;;12.85;2.88;;;;;;;;;;5008490;28;20045;-37
2021/12/19 13:09:09;;;;;;;20.85;4.68;;;;;;;;;;5007113;28;20037;-37
2021/12/19 13:11:36;;;;;;;12.35;1.98;;;;;;;;;;5010169;28;20025;-37
2021/12/19 13:14:14;;;;;;;13.25;3.00;;;;;;;;;;5011797;28;20101;-37
2021/12/19 13:16:44;;;;;;;10.95;2.17;;;;;;;;;;5006734;28;20103;-37
2021/12/19 13:19:11;;;;;;;9.38;2.15;;;;;;;;;;5007943;28;20465;-37
2021/12/19 13:21:56;;;;;;;17.70;2.95;;;;;;;;;;5009808;28;20072;-37
2021/12/19 13:24:24;;;;;;;11.75;1.23;;;;;;;;;;5009716;28;20032;-37
2021/12/19 13:27:02;;;;;;;14.77;2.53;;;;;;;;;;5010016;28;20022;-37
2021/12/19 13:29:29;;;;;;;15.27;2.33;;;;;;;;;;5016883;28;20028;-37
2021/12/19 13:31:55;;;;;;;20.75;2.33;;;;;;;;;;5014345;28;20476;-37
2021/12/19 13:34:21;;;;;;;18.65;2.83;;;;;;;;;;5020804;28;20037;-37
2021/12/19 13:37:03;;;;;;;13.85;3.75;;;;;;;;;;5021175;28;20034;-37
2021/12/19 13:39:29;;;;;;;12.10;1.92;;;;;;;;;;5003760;28;20057;-37
2021/12/19 13:42:05;;;;;;;18.15;2.90;;;;;;;;;;5021362;28;20060;-36
2021/12/19 13:44:31;;;;;;;15.43;3.78;;;;;;;;;;5030982;28;20492;-37
2021/12/19 13:46:57;;;;;;;19.83;2.00;;;;;;;;;;5023119;28;20109;-37
2021/12/19 13:49:24;;;;;;;14.85;2.83;;;;;;;;;;5011769;28;20084;-37
2021/12/19 13:51:50;;;;;;;18.20;3.42;;;;;;;;;;5017160;28;20639;-37
2021/12/19 13:54:16;;;;;;;15.88;2.58;;;;;;;;;;5015127;28;20088;-37
2021/12/19 13:56:42;;;;;;;22.08;2.47;;;;;;;;;;5011260;28;20026;-37
2021/12/19 13:59:20;;;;;;;14.45;2.45;;;;;;;;;;5021107;28;20069;-37
2021/12/19 14:01:46;;;;;;;18.23;3.20;;;;;;;;;;5027649;28;20033;-37
2021/12/19 14:04:15;;;;;;;23.92;3.65;;;;;;;;;;5013694;28;20124;-37
2021/12/19 14:06:42;;;;;;;14.25;3.20;;;;;;;;;;5010997;28;20029;-37
2021/12/19 14:09:15;;;;;;;16.60;2.17;;;;;;;;;;5027607;28;20025;-37
2021/12/19 14:11:43;;;;;;;16.30;2.70;;;;;;;;;;5030220;28;20354;-36
2021/12/19 14:14:40;;;;;;;21.02;2.65;;;;;;;;;;5014762;28;20147;-37
2021/12/19 14:17:09;;;;;;;26.50;3.03;;;;;;;;;;5023199;28;20065;-37
2021/12/19 14:19:36;;;;;;;13.00;3.60;;;;;;;;;;5022055;28;20049;-37
2021/12/19 14:22:02;;;;;;;12.80;2.22;;;;;;;;;;5010815;28;20412;-37
2021/12/19 14:24:32;;;;;;;11.07;2.15;;;;;;;;;;5030851;28;20022;-37
2021/12/19 14:27:17;;;;;;;17.33;2.65;;;;;;;;;;5027654;28;20030;-37
2021/12/19 14:29:45;;;;;;;15.23;2.25;;;;;;;;;;5012857;28;20029;-37
2021/12/19 14:32:13;;;;;;;14.27;2.92;;;;;;;;;;5021812;28;20029;-36
2021/12/19 14:34:40;;;;;;;19.73;3.53;;;;;;;;;;5013587;28;20030;-37
2021/12/19 14:37:15;;;;;;;19.42;3.60;;;;;;;;;;5017653;28;20029;-37
2021/12/19 14:39:42;;;;;;;22.92;3.67;;;;;;;;;;5014352;28;20029;-37
2021/12/19 14:42:09;;;;;;;25.63;3.45;;;;;;;;;;5014464;28;20025;-36
2021/12/19 14:44:35;;;;;;;25.83;2.95;;;;;;;;;;5030881;28;20472;-37
2021/12/19 14:47:01;;;;;;;17.98;3.13;;;;;;;;;;5026637;28;20032;-37
2021/12/19 14:49:36;;;;;;;26.40;3.40;;;;;;;;;;5018267;28;20022;-37
2021/12/19 14:52:03;;;;;;;19.35;2.75;;;;;;;;;;5022676;28;20052;-37
2021/12/19 14:54:29;;;;;;;26.65;5.05;;;;;;;;;;5030871;28;20053;-37
2021/12/19 14:56:57;;;;;;;27.65;4.00;;;;;;;;;;5013578;28;20065;-37
2021/12/19 14:59:27;;;;;;;20.60;4.13;;;;;;;;;;5014834;28;20511;-37
2021/12/19 15:01:53;;;;;;;24.35;4.07;;;;;;;;;;5012077;28;20026;-37
2021/12/19 15:04:20;;;;;;;27.83;3.20;;;;;;;;;;5018202;28;20176;-37
2021/12/19 15:06:47;;;;;;;28.15;3.70;;;;;;;;;;4981471;28;1059081;-36
2021/12/19 15:09:15;;;;;;;24.92;3.78;;;;;;;;;;5022009;28;20140;-37
2021/12/19 15:11:42;;;;;;;28.48;3.83;;;;;;;;;;5022817;28;20049;-37
2021/12/19 15:14:08;;;;;;;24.80;3.95;;;;;;;;;;5016766;28;20029;-37
2021/12/19 15:16:34;;;;;;;35.47;6.28;;;;;;;;;;5017498;28;20045;-36
2021/12/19 15:19:01;;;;;;;31.80;4.82;;;;;;;;;;5015461;28;20046;-37
2021/12/19 15:21:28;;;;;;;27.17;3.85;;;;;;;;;;5031384;28;20032;-36
2021/12/19 15:23:54;;;;;;;38.53;5.28;;;;;;;;;;5031383;28;20036;-37
2021/12/19 15:26:20;;;;;;;33.05;4.85;;;;;;;;;;5013893;28;20073;-37
2021/12/19 15:28:48;;;;;;;34.42;4.55;;;;;;;;;;5012727;28;20537;-37
2021/12/19 15:31:15;;;;;;;41.75;5.15;;;;;;;;;;5022881;28;20018;-36
2021/12/19 15:33:41;;;;;;;32.55;6.13;;;;;;;;;;5026834;28;20029;-37
2021/12/19 15:36:07;;;;;;;40.17;5.47;;;;;;;;;;5015741;28;20029;-37
2021/12/19 15:38:35;;;;;;;35.70;6.47;;;;;;;;;;5013753;28;20032;-37
2021/12/19 15:41:01;;;;;;;31.35;5.82;;;;;;;;;;5012570;28;20026;-37
2021/12/19 15:43:27;;;;;;;39.92;5.97;;;;;;;;;;5010815;28;20038;-37